sensor_id;sensor_type;location;lat;lon;timestamp;pressure;altitude;pressure_sealevel;temperature;humidity
43681;BME280;29281;50.356;30.894;2023-04-04T00:00:01;100135.06;;;4.51;100.00
43681;BME280;29281;50.356;30.894;2023-04-04T00:01:05;100141.50;;;4.44;100.00
43681;BME280;29281;50.356;30.894;2023-04-04T00:02:08;100139.22;;;4.37;100.00
43681;BME280;29281;50.356;30.894;2023-04-04T00:03:11;100150.05;;;4.29;100.00
43681;BME280;29281;50.356;30.894;2023-04-04T00:04:16;100139.69;;;4.26;100.00
43681;BME280;29281;50.356;30.894;2023-04-04T00:05:19;100142.70;;;4.37;100.00
43681;BME280;29281;50.356;30.894;2023-04-04T00:06:22;100137.95;;;4.45;100.00
43681;BME280;29281;50.356;30.894;2023-04-04T00:07:25;100137.88;;;4.47;100.00
43681;BME280;29281;50.356;30.894;2023-04-04T00:08:29;100137.09;;;4.45;100.00
43681;BME280;29281;50.356;30.894;2023-04-04T00:09:33;100139.05;;;4.60;100.00
43681;BME280;29281;50.356;30.894;2023-04-04T00:10:36;100128.33;;;4.65;100.00
43681;BME280;29281;50.356;30.894;2023-04-04T00:11:41;100137.33;;;4.59;100.00
43681;BME280;29281;50.356;30.894;2023-04-04T00:12:47;100133.03;;;4.58;100.00
43681;BME280;29281;50.356;30.894;2023-04-04T00:13:49;100138.17;;;4.41;100.00
43681;BME280;29281;50.356;30.894;2023-04-04T00:14:55;100131.77;;;4.46;100.00
43681;BME280;29281;50.356;30.894;2023-04-04T00:16:00;100127.97;;;4.33;100.00
43681;BME280;29281;50.356;30.894;2023-04-04T00:17:05;100117.99;;;4.41;100.00
43681;BME280;29281;50.356;30.894;2023-04-04T00:18:11;100122.96;;;4.47;100.00
43681;BME280;29281;50.356;30.894;2023-04-04T00:19:15;100118.69;;;4.45;100.00
43681;BME280;29281;50.356;30.894;2023-04-04T00:20:21;100121.78;;;4.54;100.00
43681;BME280;29281;50.356;30.894;2023-04-04T00:21:25;100118.49;;;4.49;100.00
43681;BME280;29281;50.356;30.894;2023-04-04T00:22:30;100116.22;;;4.42;100.00
43681;BME280;29281;50.356;30.894;2023-04-04T00:23:37;100121.13;;;4.49;100.00
43681;BME280;29281;50.356;30.894;2023-04-04T00:24:41;100122.05;;;4.48;100.00
43681;BME280;29281;50.356;30.894;2023-04-04T00:25:48;100115.54;;;4.57;100.00
43681;BME280;29281;50.356;30.894;2023-04-04T00:26:51;100117.55;;;4.71;100.00
43681;BME280;29281;50.356;30.894;2023-04-04T00:27:55;100117.31;;;4.56;100.00
43681;BME280;29281;50.356;30.894;2023-04-04T00:29:01;100119.94;;;4.56;100.00
43681;BME280;29281;50.356;30.894;2023-04-04T00:30:05;100114.16;;;4.48;100.00
43681;BME280;29281;50.356;30.894;2023-04-04T00:31:08;100118.17;;;4.57;100.00
43681;BME280;29281;50.356;30.894;2023-04-04T00:32:23;100123.62;;;4.52;100.00
43681;BME280;29281;50.356;30.894;2023-04-04T00:33:28;100123.95;;;4.45;100.00
43681;BME280;29281;50.356;30.894;2023-04-04T00:34:31;100129.93;;;4.48;100.00
43681;BME280;29281;50.356;30.894;2023-04-04T00:35:34;100123.62;;;4.52;100.00
43681;BME280;29281;50.356;30.894;2023-04-04T00:36:37;100129.91;;;4.69;100.00
43681;BME280;29281;50.356;30.894;2023-04-04T00:37:41;100140.37;;;4.70;100.00
43681;BME280;29281;50.356;30.894;2023-04-04T00:38:46;100130.84;;;4.47;100.00
43681;BME280;29281;50.356;30.894;2023-04-04T00:39:51;100134.75;;;4.39;100.00
43681;BME280;29281;50.356;30.894;2023-04-04T00:40:54;100136.17;;;4.46;100.00
43681;BME280;29281;50.356;30.894;2023-04-04T00:41:58;100126.19;;;4.54;100.00
43681;BME280;29281;50.356;30.894;2023-04-04T00:43:01;100134.34;;;4.48;100.00
43681;BME280;29281;50.356;30.894;2023-04-04T00:44:04;100131.20;;;4.40;100.00
43681;BME280;29281;50.356;30.894;2023-04-04T00:45:08;100126.98;;;4.56;100.00
43681;BME280;29281;50.356;30.894;2023-04-04T00:46:13;100130.17;;;4.63;100.00
43681;BME280;29281;50.356;30.894;2023-04-04T00:47:21;100131.81;;;4.65;100.00
43681;BME280;29281;50.356;30.894;2023-04-04T00:48:25;100126.42;;;4.68;100.00
43681;BME280;29281;50.356;30.894;2023-04-04T00:49:30;100132.67;;;4.66;100.00
43681;BME280;29281;50.356;30.894;2023-04-04T00:50:37;100125.14;;;4.58;100.00
43681;BME280;29281;50.356;30.894;2023-04-04T00:51:41;100137.56;;;4.54;100.00
43681;BME280;29281;50.356;30.894;2023-04-04T00:52:45;100131.99;;;4.42;100.00
43681;BME280;29281;50.356;30.894;2023-04-04T00:53:48;100127.84;;;4.36;100.00
43681;BME280;29281;50.356;30.894;2023-04-04T00:54:53;100124.11;;;4.42;100.00
43681;BME280;29281;50.356;30.894;2023-04-04T00:55:59;100127.18;;;4.31;100.00
43681;BME280;29281;50.356;30.894;2023-04-04T00:57:03;100126.31;;;4.51;100.00
43681;BME280;29281;50.356;30.894;2023-04-04T00:58:09;100123.00;;;4.66;100.00
43681;BME280;29281;50.356;30.894;2023-04-04T00:59:12;100131.75;;;4.67;100.00
43681;BME280;29281;50.356;30.894;2023-04-04T01:00:18;100116.22;;;4.42;100.00
43681;BME280;29281;50.356;30.894;2023-04-04T01:01:22;100119.28;;;4.51;100.00
43681;BME280;29281;50.356;30.894;2023-04-04T01:02:28;100121.84;;;4.53;100.00
43681;BME280;29281;50.356;30.894;2023-04-04T01:03:31;100116.03;;;4.65;100.00
43681;BME280;29281;50.356;30.894;2023-04-04T01:04:34;100117.38;;;4.55;100.00
43681;BME280;29281;50.356;30.894;2023-04-04T01:05:37;100114.02;;;4.51;100.00
43681;BME280;29281;50.356;30.894;2023-04-04T01:06:41;100112.25;;;4.52;100.00
43681;BME280;29281;50.356;30.894;2023-04-04T01:07:45;100111.89;;;4.59;100.00
43681;BME280;29281;50.356;30.894;2023-04-04T01:08:48;100106.62;;;4.59;100.00
43681;BME280;29281;50.356;30.894;2023-04-04T01:09:55;100116.59;;;4.53;100.00
43681;BME280;29281;50.356;30.894;2023-04-04T01:10:58;100116.82;;;4.67;100.00
43681;BME280;29281;50.356;30.894;2023-04-04T01:12:01;100120.38;;;4.66;100.00
43681;BME280;29281;50.356;30.894;2023-04-04T01:13:05;100111.03;;;4.59;100.00
43681;BME280;29281;50.356;30.894;2023-04-04T01:14:08;100116.72;;;4.50;100.00
43681;BME280;29281;50.356;30.894;2023-04-04T01:15:11;100114.62;;;4.58;100.00
43681;BME280;29281;50.356;30.894;2023-04-04T01:16:15;100113.04;;;4.54;100.00
43681;BME280;29281;50.356;30.894;2023-04-04T01:17:18;100113.66;;;4.59;100.00
43681;BME280;29281;50.356;30.894;2023-04-04T01:18:23;100107.97;;;4.49;100.00
43681;BME280;29281;50.356;30.894;2023-04-04T01:19:32;100112.97;;;4.55;100.00
43681;BME280;29281;50.356;30.894;2023-04-04T01:20:33;100114.09;;;4.50;100.00
43681;BME280;29281;50.356;30.894;2023-04-04T01:21:38;100113.66;;;4.40;100.00
43681;BME280;29281;50.356;30.894;2023-04-04T01:22:42;100120.27;;;4.49;100.00
43681;BME280;29281;50.356;30.894;2023-04-04T01:25:03;100116.34;;;4.39;100.00
43681;BME280;29281;50.356;30.894;2023-04-04T01:26:07;100115.92;;;4.48;100.00
43681;BME280;29281;50.356;30.894;2023-04-04T01:27:11;100112.91;;;4.57;100.00
43681;BME280;29281;50.356;30.894;2023-04-04T01:28:18;100110.28;;;4.57;100.00
43681;BME280;29281;50.356;30.894;2023-04-04T01:29:21;100109.48;;;4.55;100.00
43681;BME280;29281;50.356;30.894;2023-04-04T01:30:27;100111.69;;;4.64;100.00
43681;BME280;29281;50.356;30.894;2023-04-04T01:32:56;100115.68;;;4.34;100.00
43681;BME280;29281;50.356;30.894;2023-04-04T01:34:09;100119.60;;;4.44;100.00
43681;BME280;29281;50.356;30.894;2023-04-04T01:35:10;100125.27;;;4.55;100.00
43681;BME280;29281;50.356;30.894;2023-04-04T01:36:17;100125.66;;;4.46;100.00
43681;BME280;29281;50.356;30.894;2023-04-04T01:37:29;100125.75;;;4.24;100.00
43681;BME280;29281;50.356;30.894;2023-04-04T01:38:29;100120.44;;;4.26;100.00
43681;BME280;29281;50.356;30.894;2023-04-04T01:39:39;100124.67;;;4.28;100.00
43681;BME280;29281;50.356;30.894;2023-04-04T01:40:43;100131.74;;;4.28;100.00
43681;BME280;29281;50.356;30.894;2023-04-04T01:41:48;100124.30;;;4.17;100.00
43681;BME280;29281;50.356;30.894;2023-04-04T01:42:52;100122.65;;;4.14;100.00
43681;BME280;29281;50.356;30.894;2023-04-04T01:43:56;100125.41;;;4.32;100.00
43681;BME280;29281;50.356;30.894;2023-04-04T01:45:00;100125.47;;;4.30;100.00
43681;BME280;29281;50.356;30.894;2023-04-04T01:46:05;100135.98;;;4.30;100.00
43681;BME280;29281;50.356;30.894;2023-04-04T01:47:09;100125.63;;;4.27;100.00
43681;BME280;29281;50.356;30.894;2023-04-04T01:48:14;100130.60;;;4.33;100.00
43681;BME280;29281;50.356;30.894;2023-04-04T01:49:25;100130.28;;;4.20;100.00
43681;BME280;29281;50.356;30.894;2023-04-04T01:50:26;100125.88;;;4.21;100.00
43681;BME280;29281;50.356;30.894;2023-04-04T01:51:32;100131.61;;;4.10;100.00
43681;BME280;29281;50.356;30.894;2023-04-04T01:52:35;100133.38;;;4.10;100.00
43681;BME280;29281;50.356;30.894;2023-04-04T01:53:39;100133.44;;;4.08;100.00
43681;BME280;29281;50.356;30.894;2023-04-04T01:54:43;100140.86;;;4.19;100.00
43681;BME280;29281;50.356;30.894;2023-04-04T01:55:51;100133.58;;;4.26;100.00
43681;BME280;29281;50.356;30.894;2023-04-04T01:56:53;100132.78;;;4.23;100.00
43681;BME280;29281;50.356;30.894;2023-04-04T01:57:57;100134.21;;;4.31;100.00
43681;BME280;29281;50.356;30.894;2023-04-04T01:59:01;100130.95;;;4.26;100.00
43681;BME280;29281;50.356;30.894;2023-04-04T02:00:04;100138.67;;;4.29;100.00
43681;BME280;29281;50.356;30.894;2023-04-04T02:01:10;100130.03;;;4.27;100.00
43681;BME280;29281;50.356;30.894;2023-04-04T02:02:14;100132.12;;;4.18;100.00
43681;BME280;29281;50.356;30.894;2023-04-04T02:03:17;100133.16;;;4.14;100.00
43681;BME280;29281;50.356;30.894;2023-04-04T02:04:20;100128.70;;;4.16;100.00
43681;BME280;29281;50.356;30.894;2023-04-04T02:05:24;100131.54;;;4.12;100.00
43681;BME280;29281;50.356;30.894;2023-04-04T02:06:27;100134.66;;;4.00;100.00
43681;BME280;29281;50.356;30.894;2023-04-04T02:07:32;100134.17;;;4.12;100.00
43681;BME280;29281;50.356;30.894;2023-04-04T02:08:35;100133.09;;;4.16;100.00
43681;BME280;29281;50.356;30.894;2023-04-04T02:09:41;100135.98;;;4.30;100.00
43681;BME280;29281;50.356;30.894;2023-04-04T02:10:44;100138.11;;;4.22;100.00
43681;BME280;29281;50.356;30.894;2023-04-04T02:11:48;100137.25;;;4.21;100.00
43681;BME280;29281;50.356;30.894;2023-04-04T02:12:51;100136.39;;;4.21;100.00
43681;BME280;29281;50.356;30.894;2023-04-04T02:13:56;100138.55;;;4.32;100.00
43681;BME280;29281;50.356;30.894;2023-04-04T02:15:01;100138.77;;;4.27;100.00
43681;BME280;29281;50.356;30.894;2023-04-04T02:16:04;100144.34;;;4.19;100.00
43681;BME280;29281;50.356;30.894;2023-04-04T02:17:07;100139.88;;;4.21;100.00
43681;BME280;29281;50.356;30.894;2023-04-04T02:18:11;100133.09;;;4.16;100.00
43681;BME280;29281;50.356;30.894;2023-04-04T02:19:14;100135.41;;;4.23;100.00
43681;BME280;29281;50.356;30.894;2023-04-04T02:20:18;100132.25;;;4.36;100.00
43681;BME280;29281;50.356;30.894;2023-04-04T02:21:21;100137.03;;;4.46;100.00
43681;BME280;29281;50.356;30.894;2023-04-04T02:22:28;100134.52;;;4.43;100.00
43681;BME280;29281;50.356;30.894;2023-04-04T02:23:31;100142.77;;;4.36;100.00
43681;BME280;29281;50.356;30.894;2023-04-04T02:24:33;100140.19;;;4.14;100.00
43681;BME280;29281;50.356;30.894;2023-04-04T02:25:38;100134.36;;;4.07;100.00
43681;BME280;29281;50.356;30.894;2023-04-04T02:26:40;100135.78;;;4.14;100.00
43681;BME280;29281;50.356;30.894;2023-04-04T02:27:45;100131.87;;;4.24;100.00
43681;BME280;29281;50.356;30.894;2023-04-04T02:28:48;100135.94;;;4.11;100.00
43681;BME280;29281;50.356;30.894;2023-04-04T02:29:50;100128.70;;;3.96;100.00
43681;BME280;29281;50.356;30.894;2023-04-04T02:30:55;100127.39;;;4.06;100.00
43681;BME280;29281;50.356;30.894;2023-04-04T02:31:58;100127.06;;;3.94;100.00
43681;BME280;29281;50.356;30.894;2023-04-04T02:33:01;100125.28;;;3.94;100.00
43681;BME280;29281;50.356;30.894;2023-04-04T02:34:06;100114.00;;;4.12;100.00
43681;BME280;29281;50.356;30.894;2023-04-04T02:35:09;100115.62;;;4.15;100.00
43681;BME280;29281;50.356;30.894;2023-04-04T02:36:12;100115.37;;;4.21;100.00
43681;BME280;29281;50.356;30.894;2023-04-04T02:37:15;100110.52;;;4.12;100.00
43681;BME280;29281;50.356;30.894;2023-04-04T02:38:19;100107.22;;;4.07;100.00
43681;BME280;29281;50.356;30.894;2023-04-04T02:39:23;100105.27;;;4.12;100.00
43681;BME280;29281;50.356;30.894;2023-04-04T02:40:26;100101.87;;;4.29;100.00
43681;BME280;29281;50.356;30.894;2023-04-04T02:41:30;100099.59;;;4.41;100.00
43681;BME280;29281;50.356;30.894;2023-04-04T02:42:35;100092.15;;;4.31;100.00
43681;BME280;29281;50.356;30.894;2023-04-04T02:43:38;100095.86;;;4.27;100.00
43681;BME280;29281;50.356;30.894;2023-04-04T02:44:42;100090.31;;;4.33;100.00
43681;BME280;29281;50.356;30.894;2023-04-04T02:45:47;100093.61;;;4.17;100.00
43681;BME280;29281;50.356;30.894;2023-04-04T02:46:57;100093.11;;;4.09;100.00
43681;BME280;29281;50.356;30.894;2023-04-04T02:48:03;100089.36;;;3.95;100.00
43681;BME280;29281;50.356;30.894;2023-04-04T02:49:07;100084.42;;;4.07;100.00
43681;BME280;29281;50.356;30.894;2023-04-04T02:50:12;100092.88;;;4.14;100.00
43681;BME280;29281;50.356;30.894;2023-04-04T02:51:19;100090.48;;;4.09;100.00
43681;BME280;29281;50.356;30.894;2023-04-04T02:52:23;100083.38;;;4.11;100.00
43681;BME280;29281;50.356;30.894;2023-04-04T02:53:28;100089.93;;;4.01;100.00
43681;BME280;29281;50.356;30.894;2023-04-04T02:54:33;100081.13;;;4.02;100.00
43681;BME280;29281;50.356;30.894;2023-04-04T02:55:37;100079.91;;;4.11;100.00
43681;BME280;29281;50.356;30.894;2023-04-04T02:56:40;100079.23;;;4.06;100.00
43681;BME280;29281;50.356;30.894;2023-04-04T02:57:49;100084.47;;;3.85;100.00
43681;BME280;29281;50.356;30.894;2023-04-04T02:58:48;100078.05;;;3.93;100.00
43681;BME280;29281;50.356;30.894;2023-04-04T02:59:56;100087.42;;;3.98;100.00
43681;BME280;29281;50.356;30.894;2023-04-04T03:00:59;100091.01;;;3.97;100.00
43681;BME280;29281;50.356;30.894;2023-04-04T03:02:04;100086.45;;;4.01;100.00
43681;BME280;29281;50.356;30.894;2023-04-04T03:03:07;100089.14;;;3.99;100.00
43681;BME280;29281;50.356;30.894;2023-04-04T03:04:13;100096.90;;;4.02;100.00
43681;BME280;29281;50.356;30.894;2023-04-04T03:05:17;100098.42;;;4.08;100.00
43681;BME280;29281;50.356;30.894;2023-04-04T03:06:22;100098.61;;;4.03;100.00
43681;BME280;29281;50.356;30.894;2023-04-04T03:07:26;100106.30;;;4.08;100.00
43681;BME280;29281;50.356;30.894;2023-04-04T03:08:29;100114.19;;;4.08;100.00
43681;BME280;29281;50.356;30.894;2023-04-04T03:09:35;100114.92;;;4.11;100.00
43681;BME280;29281;50.356;30.894;2023-04-04T03:10:37;100119.83;;;4.19;100.00
43681;BME280;29281;50.356;30.894;2023-04-04T03:11:41;100118.59;;;4.07;100.00
43681;BME280;29281;50.356;30.894;2023-04-04T03:12:46;100117.59;;;3.89;100.00
43681;BME280;29281;50.356;30.894;2023-04-04T03:13:50;100119.11;;;3.95;100.00
43681;BME280;29281;50.356;30.894;2023-04-04T03:14:56;100125.34;;;3.93;100.00
43681;BME280;29281;50.356;30.894;2023-04-04T03:15:59;100122.59;;;3.96;100.00
43681;BME280;29281;50.356;30.894;2023-04-04T03:17:05;100126.94;;;3.97;100.00
43681;BME280;29281;50.356;30.894;2023-04-04T03:18:11;100129.89;;;4.09;100.00
43681;BME280;29281;50.356;30.894;2023-04-04T03:19:14;100132.24;;;4.15;100.00
43681;BME280;29281;50.356;30.894;2023-04-04T03:20:19;100126.53;;;4.06;100.00
43681;BME280;29281;50.356;30.894;2023-04-04T03:21:22;100132.25;;;3.95;100.00
43681;BME280;29281;50.356;30.894;2023-04-04T03:22:25;100140.59;;;4.05;100.00
43681;BME280;29281;50.356;30.894;2023-04-04T03:23:29;100129.95;;;4.08;100.00
43681;BME280;29281;50.356;30.894;2023-04-04T03:24:33;100135.27;;;4.06;100.00
43681;BME280;29281;50.356;30.894;2023-04-04T03:25:40;100135.39;;;4.03;100.00
43681;BME280;29281;50.356;30.894;2023-04-04T03:26:44;100138.36;;;4.16;100.00
43681;BME280;29281;50.356;30.894;2023-04-04T03:27:49;100141.56;;;4.02;100.00
43681;BME280;29281;50.356;30.894;2023-04-04T03:28:55;100142.48;;;4.01;100.00
43681;BME280;29281;50.356;30.894;2023-04-04T03:30:02;100142.24;;;4.07;100.00
43681;BME280;29281;50.356;30.894;2023-04-04T03:31:07;100146.23;;;4.16;100.00
43681;BME280;29281;50.356;30.894;2023-04-04T03:32:12;100147.49;;;4.07;100.00
43681;BME280;29281;50.356;30.894;2023-04-04T03:33:15;100150.37;;;4.01;100.00
43681;BME280;29281;50.356;30.894;2023-04-04T03:34:19;100148.41;;;4.06;100.00
43681;BME280;29281;50.356;30.894;2023-04-04T03:35:23;100145.38;;;4.15;100.00
43681;BME280;29281;50.356;30.894;2023-04-04T03:36:29;100150.64;;;4.15;100.00
43681;BME280;29281;50.356;30.894;2023-04-04T03:37:33;100148.86;;;4.16;100.00
43681;BME280;29281;50.356;30.894;2023-04-04T03:38:38;100148.43;;;4.27;100.00
43681;BME280;29281;50.356;30.894;2023-04-04T03:39:40;100156.69;;;3.97;100.00
43681;BME280;29281;50.356;30.894;2023-04-04T03:40:44;100152.47;;;3.93;100.00
43681;BME280;29281;50.356;30.894;2023-04-04T03:41:47;100153.27;;;4.15;100.00
43681;BME280;29281;50.356;30.894;2023-04-04T03:42:51;100154.39;;;4.30;100.00
43681;BME280;29281;50.356;30.894;2023-04-04T03:43:54;100156.22;;;4.28;100.00
43681;BME280;29281;50.356;30.894;2023-04-04T03:44:58;100156.69;;;4.17;100.00
43681;BME280;29281;50.356;30.894;2023-04-04T03:46:07;100151.70;;;4.32;100.00
43681;BME280;29281;50.356;30.894;2023-04-04T03:47:10;100163.19;;;4.29;100.00
43681;BME280;29281;50.356;30.894;2023-04-04T03:48:14;100162.87;;;4.37;100.00
43681;BME280;29281;50.356;30.894;2023-04-04T03:49:18;100162.27;;;4.30;100.00
43681;BME280;29281;50.356;30.894;2023-04-04T03:50:21;100161.61;;;4.45;100.00
43681;BME280;29281;50.356;30.894;2023-04-04T03:51:27;100160.76;;;4.45;100.00
43681;BME280;29281;50.356;30.894;2023-04-04T03:52:30;100161.36;;;4.51;100.00
43681;BME280;29281;50.356;30.894;2023-04-04T03:53:35;100160.16;;;4.58;100.00
43681;BME280;29281;50.356;30.894;2023-04-04T03:54:39;100159.95;;;4.63;100.00
43681;BME280;29281;50.356;30.894;2023-04-04T03:55:42;100158.12;;;4.65;100.00
43681;BME280;29281;50.356;30.894;2023-04-04T03:56:48;100160.49;;;4.71;100.00
43681;BME280;29281;50.356;30.894;2023-04-04T03:57:51;100164.66;;;4.56;100.00
43681;BME280;29281;50.356;30.894;2023-04-04T03:58:55;100163.51;;;4.62;100.00
43681;BME280;29281;50.356;30.894;2023-04-04T04:00:02;100173.52;;;4.34;100.00
43681;BME280;29281;50.356;30.894;2023-04-04T04:01:08;100167.20;;;4.17;100.00
43681;BME280;29281;50.356;30.894;2023-04-04T04:02:11;100172.06;;;4.06;100.00
43681;BME280;29281;50.356;30.894;2023-04-04T04:03:14;100173.38;;;3.96;100.00
43681;BME280;29281;50.356;30.894;2023-04-04T04:04:18;100169.03;;;3.95;100.00
43681;BME280;29281;50.356;30.894;2023-04-04T04:05:21;100175.27;;;3.93;100.00
43681;BME280;29281;50.356;30.894;2023-04-04T04:06:25;100171.72;;;3.94;100.00
43681;BME280;29281;50.356;30.894;2023-04-04T04:07:31;100172.87;;;3.86;100.00
43681;BME280;29281;50.356;30.894;2023-04-04T04:08:34;100177.03;;;3.92;100.00
43681;BME280;29281;50.356;30.894;2023-04-04T04:09:38;100175.09;;;3.97;100.00
43681;BME280;29281;50.356;30.894;2023-04-04T04:10:44;100185.42;;;3.80;100.00
43681;BME280;29281;50.356;30.894;2023-04-04T04:11:53;100178.87;;;3.90;100.00
43681;BME280;29281;50.356;30.894;2023-04-04T04:12:58;100187.42;;;3.95;100.00
43681;BME280;29281;50.356;30.894;2023-04-04T04:14:02;100185.44;;;4.00;100.00
43681;BME280;29281;50.356;30.894;2023-04-04T04:15:06;100176.53;;;3.82;100.00
43681;BME280;29281;50.356;30.894;2023-04-04T04:16:10;100185.54;;;3.77;100.00
43681;BME280;29281;50.356;30.894;2023-04-04T04:17:14;100184.18;;;3.88;100.00
43681;BME280;29281;50.356;30.894;2023-04-04T04:18:19;100186.69;;;3.92;100.00
43681;BME280;29281;50.356;30.894;2023-04-04T04:19:23;100181.61;;;3.87;100.00
43681;BME280;29281;50.356;30.894;2023-04-04T04:20:26;100188.52;;;3.89;100.00
43681;BME280;29281;50.356;30.894;2023-04-04T04:21:29;100186.75;;;3.90;100.00
43681;BME280;29281;50.356;30.894;2023-04-04T04:22:34;100183.50;;;3.83;100.00
43681;BME280;29281;50.356;30.894;2023-04-04T04:23:38;100181.84;;;4.03;100.00
43681;BME280;29281;50.356;30.894;2023-04-04T04:24:42;100183.95;;;4.15;100.00
43681;BME280;29281;50.356;30.894;2023-04-04T04:25:46;100189.48;;;4.09;100.00
43681;BME280;29281;50.356;30.894;2023-04-04T04:26:52;100183.88;;;3.96;100.00
43681;BME280;29281;50.356;30.894;2023-04-04T04:27:55;100198.28;;;4.08;100.00
43681;BME280;29281;50.356;30.894;2023-04-04T04:29:00;100195.47;;;4.12;100.00
43681;BME280;29281;50.356;30.894;2023-04-04T04:30:06;100188.05;;;4.22;100.00
43681;BME280;29281;50.356;30.894;2023-04-04T04:31:11;100187.92;;;4.25;100.00
43681;BME280;29281;50.356;30.894;2023-04-04T04:32:17;100190.27;;;4.31;100.00
43681;BME280;29281;50.356;30.894;2023-04-04T04:33:26;100186.79;;;4.31;100.00
43681;BME280;29281;50.356;30.894;2023-04-04T04:34:31;100187.58;;;4.33;100.00
43681;BME280;29281;50.356;30.894;2023-04-04T04:35:37;100192.33;;;4.24;100.00
43681;BME280;29281;50.356;30.894;2023-04-04T04:36:43;100187.52;;;4.34;100.00
43681;BME280;29281;50.356;30.894;2023-04-04T04:37:57;100195.20;;;4.18;100.00
43681;BME280;29281;50.356;30.894;2023-04-04T04:39:01;100196.39;;;4.11;100.00
43681;BME280;29281;50.356;30.894;2023-04-04T04:40:06;100194.00;;;4.05;100.00
43681;BME280;29281;50.356;30.894;2023-04-04T04:41:13;100200.52;;;4.17;100.00
43681;BME280;29281;50.356;30.894;2023-04-04T04:42:18;100205.53;;;4.23;100.00
43681;BME280;29281;50.356;30.894;2023-04-04T04:43:22;100198.95;;;4.33;100.00
43681;BME280;29281;50.356;30.894;2023-04-04T04:44:29;100195.53;;;4.31;100.00
43681;BME280;29281;50.356;30.894;2023-04-04T04:45:32;100191.80;;;4.37;100.00
43681;BME280;29281;50.356;30.894;2023-04-04T04:46:43;100192.78;;;4.34;100.00
43681;BME280;29281;50.356;30.894;2023-04-04T04:47:48;100195.32;;;4.15;100.00
43681;BME280;29281;50.356;30.894;2023-04-04T04:48:52;100196.57;;;4.07;100.00
43681;BME280;29281;50.356;30.894;2023-04-04T04:49:57;100199.02;;;4.11;100.00
43681;BME280;29281;50.356;30.894;2023-04-04T04:51:03;100195.41;;;4.34;100.00
43681;BME280;29281;50.356;30.894;2023-04-04T04:52:14;100195.99;;;4.20;100.00
43681;BME280;29281;50.356;30.894;2023-04-04T04:53:18;100189.36;;;4.12;100.00
43681;BME280;29281;50.356;30.894;2023-04-04T04:54:21;100188.72;;;4.27;100.00
43681;BME280;29281;50.356;30.894;2023-04-04T04:55:26;100182.20;;;4.36;100.00
43681;BME280;29281;50.356;30.894;2023-04-04T04:56:34;100179.98;;;4.27;100.00
43681;BME280;29281;50.356;30.894;2023-04-04T04:57:39;100186.73;;;4.32;100.00
43681;BME280;29281;50.356;30.894;2023-04-04T04:58:43;100184.09;;;4.32;100.00
43681;BME280;29281;50.356;30.894;2023-04-04T04:59:51;100180.61;;;4.32;100.00
43681;BME280;29281;50.356;30.894;2023-04-04T05:00:55;100182.20;;;4.36;100.00
43681;BME280;29281;50.356;30.894;2023-04-04T05:02:03;100189.74;;;4.43;100.00
43681;BME280;29281;50.356;30.894;2023-04-04T05:03:09;100189.62;;;4.46;100.00
43681;BME280;29281;50.356;30.894;2023-04-04T05:04:14;100187.91;;;4.45;100.00
43681;BME280;29281;50.356;30.894;2023-04-04T05:05:22;100187.41;;;4.57;100.00
43681;BME280;29281;50.356;30.894;2023-04-04T05:06:25;100185.53;;;4.59;100.00
43681;BME280;29281;50.356;30.894;2023-04-04T05:07:28;100185.44;;;4.42;100.00
43681;BME280;29281;50.356;30.894;2023-04-04T05:08:32;100182.02;;;4.40;100.00
43681;BME280;29281;50.356;30.894;2023-04-04T05:09:39;100180.61;;;4.32;100.00
43681;BME280;29281;50.356;30.894;2023-04-04T05:10:43;100184.50;;;4.23;100.00
43681;BME280;29281;50.356;30.894;2023-04-04T05:11:47;100183.91;;;4.37;100.00
43681;BME280;29281;50.356;30.894;2023-04-04T05:12:54;100179.03;;;4.48;100.00
43681;BME280;29281;50.356;30.894;2023-04-04T05:13:58;100178.84;;;4.32;100.00
43681;BME280;29281;50.356;30.894;2023-04-04T05:15:04;100178.05;;;4.30;100.00
43681;BME280;29281;50.356;30.894;2023-04-04T05:16:08;100179.51;;;4.37;100.00
43681;BME280;29281;50.356;30.894;2023-04-04T05:17:12;100182.61;;;4.27;100.00
43681;BME280;29281;50.356;30.894;2023-04-04T05:18:17;100178.27;;;4.26;100.00
43681;BME280;29281;50.356;30.894;2023-04-04T05:19:21;100184.56;;;4.21;100.00
43681;BME280;29281;50.356;30.894;2023-04-04T05:20:26;100190.98;;;4.14;100.00
43681;BME280;29281;50.356;30.894;2023-04-04T05:21:32;100180.89;;;4.26;100.00
43681;BME280;29281;50.356;30.894;2023-04-04T05:22:41;100177.73;;;4.38;100.00
43681;BME280;29281;50.356;30.894;2023-04-04T05:23:43;100185.02;;;4.31;100.00
43681;BME280;29281;50.356;30.894;2023-04-04T05:24:47;100181.81;;;4.24;100.00
43681;BME280;29281;50.356;30.894;2023-04-04T05:25:52;100179.24;;;4.23;100.00
43681;BME280;29281;50.356;30.894;2023-04-04T05:26:57;100176.73;;;4.20;100.00
43681;BME280;29281;50.356;30.894;2023-04-04T05:28:00;100171.48;;;4.20;100.00
43681;BME280;29281;50.356;30.894;2023-04-04T05:29:05;100167.08;;;4.20;100.00
43681;BME280;29281;50.356;30.894;2023-04-04T05:30:10;100164.70;;;4.14;100.00
43681;BME280;29281;50.356;30.894;2023-04-04T05:31:15;100176.86;;;4.17;100.00
43681;BME280;29281;50.356;30.894;2023-04-04T05:32:19;100168.82;;;4.00;100.00
43681;BME280;29281;50.356;30.894;2023-04-04T05:33:26;100170.02;;;4.13;100.00
43681;BME280;29281;50.356;30.894;2023-04-04T05:34:49;100176.80;;;4.18;100.00
43681;BME280;29281;50.356;30.894;2023-04-04T05:35:53;100189.36;;;4.12;100.00